Time;durP1;ratioP1;P1;durP2;ratioP2;P2;SDS_P1;SDS_P2;PMS_P1;PMS_P2;Temp;Humidity;BMP_temperature;BMP_pressure;BME280_temperature;BME280_humidity;BME280_pressure;Samples;Min_cycle;Max_cycle;Signal;HPM_P1;HPM_P2
2024/01/03 00:00:52;;;;;;;0.60;0.60;;;6.90;99.90;;;;;;2037431;29;20216;-66
2024/01/03 00:01:59;;;;;;;0.93;0.50;;;6.90;99.90;;;;;;2045907;28;20243;-66
2024/01/03 00:03:00;;;;;;;0.50;0.50;;;6.80;99.90;;;;;;2044591;28;20222;-66
2024/01/03 00:04:01;;;;;;;1.30;0.80;;;6.90;99.90;;;;;;2044852;28;20220;-66
2024/01/03 00:05:04;;;;;;;1.17;0.68;;;7.00;99.90;;;;;;2048504;28;20230;-67
2024/01/03 00:06:05;;;;;;;0.60;0.60;;;6.90;99.90;;;;;;2041310;28;20274;-66
2024/01/03 00:07:06;;;;;;;1.20;0.50;;;6.90;99.90;;;;;;2048290;28;20186;-66
2024/01/03 00:08:23;;;;;;;0.77;0.60;;;6.90;99.90;;;;;;2046444;28;20525;-67
2024/01/03 00:09:25;;;;;;;1.38;0.80;;;6.90;99.90;;;;;;2040826;28;20482;-66
2024/01/03 00:10:54;;;;;;;1.85;0.60;;;6.80;99.90;;;;;;2039999;29;20291;-66
2024/01/03 00:11:55;;;;;;;0.60;0.60;;;6.90;99.90;;;;;;2042499;28;20224;-66
2024/01/03 00:12:56;;;;;;;0.60;0.53;;;6.90;99.90;;;;;;2036398;29;20252;-67
2024/01/03 00:14:26;;;;;;;0.50;0.50;;;6.90;99.90;;;;;;2037809;29;20232;-66
2024/01/03 00:15:36;;;;;;;0.50;0.50;;;6.90;99.90;;;;;;2048052;28;20227;-66
2024/01/03 00:16:41;;;;;;;0.50;0.50;;;6.90;99.90;;;;;;2046137;28;20579;-67
2024/01/03 00:17:43;;;;;;;1.23;0.70;;;6.90;99.90;;;;;;2037373;28;20300;-65
2024/01/03 00:18:54;;;;;;;0.85;0.60;;;6.90;99.90;;;;;;2040090;28;20598;-65
2024/01/03 00:19:56;;;;;;;0.50;0.50;;;6.90;99.90;;;;;;2040049;28;20255;-67
2024/01/03 00:20:57;;;;;;;0.57;0.55;;;6.90;99.90;;;;;;2038952;28;20307;-66
2024/01/03 00:21:58;;;;;;;0.40;0.40;;;6.90;99.90;;;;;;2044750;28;20579;-66
2024/01/03 00:23:03;;;;;;;2.60;0.60;;;7.00;99.90;;;;;;2044439;28;20323;-66
2024/01/03 00:24:07;;;;;;;0.90;0.50;;;6.90;99.90;;;;;;2037377;28;20220;-66
2024/01/03 00:25:10;;;;;;;0.50;0.50;;;7.00;99.90;;;;;;2038704;29;20188;-66
2024/01/03 00:26:11;;;;;;;1.30;0.63;;;6.90;99.90;;;;;;2046231;28;20187;-67
2024/01/03 00:27:12;;;;;;;1.33;0.63;;;6.90;99.90;;;;;;2047436;28;20192;-67
2024/01/03 00:28:14;;;;;;;1.67;0.75;;;6.90;99.90;;;;;;2038824;29;20212;-67
2024/01/03 00:29:47;;;;;;;2.50;0.65;;;6.80;99.90;;;;;;2045991;28;20180;-71
2024/01/03 00:30:48;;;;;;;0.82;0.70;;;6.80;99.90;;;;;;2037070;29;20303;-68
2024/01/03 00:31:49;;;;;;;1.90;0.60;;;6.90;99.90;;;;;;2029493;29;20233;-69
2024/01/03 00:32:50;;;;;;;0.68;0.60;;;6.90;99.90;;;;;;2043972;28;20316;-67
2024/01/03 00:33:51;;;;;;;0.73;0.57;;;6.90;99.90;;;;;;2045283;28;20238;-68
2024/01/03 00:34:53;;;;;;;1.00;0.70;;;6.90;99.90;;;;;;2045508;28;20326;-67
2024/01/03 00:35:55;;;;;;;0.70;0.70;;;6.90;99.90;;;;;;2045034;28;20305;-67
2024/01/03 00:36:56;;;;;;;0.60;0.60;;;6.90;99.90;;;;;;2045936;28;20220;-66
2024/01/03 00:37:57;;;;;;;1.07;0.60;;;6.90;99.90;;;;;;2046726;28;20212;-67
2024/01/03 00:38:57;;;;;;;1.37;0.60;;;6.90;99.90;;;;;;2046478;28;20220;-66
2024/01/03 00:40:03;;;;;;;1.47;0.70;;;6.90;99.90;;;;;;2043977;28;20219;-66
2024/01/03 00:41:04;;;;;;;1.42;0.70;;;7.00;99.90;;;;;;2050056;28;20222;-66
2024/01/03 00:42:05;;;;;;;0.57;0.50;;;7.00;99.90;;;;;;2045887;28;20585;-67
2024/01/03 00:43:05;;;;;;;1.10;0.70;;;7.00;99.90;;;;;;2043223;28;20271;-67
2024/01/03 00:44:06;;;;;;;1.23;0.60;;;7.00;99.90;;;;;;2046828;28;20218;-65
2024/01/03 00:45:07;;;;;;;1.40;0.60;;;7.10;99.90;;;;;;2044222;28;20184;-68
2024/01/03 00:46:08;;;;;;;0.85;0.60;;;7.00;99.90;;;;;;2045865;28;20205;-69
2024/01/03 00:47:09;;;;;;;0.70;0.70;;;7.00;99.90;;;;;;2046458;28;20195;-67
2024/01/03 00:48:10;;;;;;;0.90;0.90;;;7.00;99.90;;;;;;2038082;29;20208;-68
2024/01/03 00:49:11;;;;;;;0.60;0.60;;;7.00;99.90;;;;;;2029330;29;20193;-66
2024/01/03 00:50:13;;;;;;;1.70;0.70;;;7.00;99.90;;;;;;2038105;28;20199;-66
2024/01/03 00:51:14;;;;;;;0.98;0.63;;;7.00;99.90;;;;;;2040095;29;20191;-66
2024/01/03 00:52:16;;;;;;;0.63;0.60;;;7.00;99.90;;;;;;2045562;28;20266;-66
2024/01/03 00:53:17;;;;;;;1.05;0.75;;;7.00;99.90;;;;;;2051218;28;20195;-66
2024/01/03 00:54:19;;;;;;;1.20;0.70;;;6.90;99.90;;;;;;2037258;28;20942;-66
2024/01/03 00:55:20;;;;;;;2.25;0.82;;;6.90;99.90;;;;;;2037553;29;20180;-66
2024/01/03 00:56:21;;;;;;;0.80;0.70;;;6.90;99.90;;;;;;2037651;29;20236;-66
2024/01/03 00:57:23;;;;;;;2.73;0.80;;;7.00;99.90;;;;;;2042563;28;20235;-66
2024/01/03 00:58:23;;;;;;;0.85;0.50;;;7.00;99.90;;;;;;2042625;28;20234;-67
2024/01/03 00:59:25;;;;;;;1.83;0.70;;;7.00;99.90;;;;;;2045161;28;20249;-65
2024/01/03 01:00:25;;;;;;;1.10;0.70;;;7.00;99.90;;;;;;2046198;28;20235;-66
2024/01/03 01:01:26;;;;;;;1.80;0.80;;;6.90;99.90;;;;;;2037394;29;20647;-66
2024/01/03 01:02:27;;;;;;;1.90;0.60;;;6.90;99.90;;;;;;2036627;29;20219;-71
2024/01/03 01:03:27;;;;;;;1.73;0.60;;;6.90;99.90;;;;;;2028863;29;20230;-71
2024/01/03 01:04:31;;;;;;;1.20;0.97;;;6.90;99.90;;;;;;2038005;28;20290;-70
2024/01/03 01:05:32;;;;;;;0.93;0.60;;;6.90;99.90;;;;;;2038314;29;20263;-70
2024/01/03 01:06:33;;;;;;;1.17;0.60;;;6.90;99.90;;;;;;2042693;28;20236;-71
2024/01/03 01:07:33;;;;;;;2.70;0.90;;;6.90;99.90;;;;;;2043174;28;20602;-70
2024/01/03 01:08:34;;;;;;;1.20;0.60;;;6.90;99.90;;;;;;2035240;29;20240;-70
2024/01/03 01:09:35;;;;;;;1.70;0.70;;;6.90;99.90;;;;;;2023036;29;20229;-72
2024/01/03 01:10:36;;;;;;;1.17;0.60;;;6.80;99.90;;;;;;2029244;29;20323;-70
2024/01/03 01:11:36;;;;;;;1.80;0.90;;;6.80;99.90;;;;;;2038446;29;20777;-71
2024/01/03 01:12:37;;;;;;;1.03;0.80;;;6.80;99.90;;;;;;2038728;29;20315;-71
2024/01/03 01:13:38;;;;;;;0.50;0.50;;;6.80;99.90;;;;;;2044261;28;20338;-69
2024/01/03 01:14:38;;;;;;;0.50;0.50;;;6.80;99.90;;;;;;2045091;28;20335;-70
2024/01/03 01:15:39;;;;;;;1.23;0.60;;;6.80;99.90;;;;;;2043491;28;20235;-71
2024/01/03 01:16:40;;;;;;;0.53;0.50;;;6.80;99.90;;;;;;2042938;28;20239;-71
2024/01/03 01:17:41;;;;;;;0.40;0.40;;;6.80;99.90;;;;;;2043073;28;20266;-71
2024/01/03 01:18:42;;;;;;;0.50;0.50;;;6.80;99.90;;;;;;2042705;28;20235;-71
2024/01/03 01:19:43;;;;;;;0.57;0.57;;;6.80;99.90;;;;;;2046494;28;20334;-70
2024/01/03 01:20:44;;;;;;;0.73;0.53;;;6.80;99.90;;;;;;2048891;28;20261;-70
2024/01/03 01:21:44;;;;;;;0.63;0.50;;;6.80;99.90;;;;;;2045649;28;20639;-70
2024/01/03 01:22:45;;;;;;;0.70;0.50;;;6.80;99.90;;;;;;2044573;28;20222;-71
2024/01/03 01:23:45;;;;;;;1.10;0.60;;;6.80;99.90;;;;;;2036667;28;20263;-71
2024/01/03 01:24:46;;;;;;;0.50;0.50;;;6.80;99.90;;;;;;2035860;28;20723;-71
2024/01/03 01:25:47;;;;;;;1.67;1.17;;;6.80;99.90;;;;;;2043575;28;20581;-70
2024/01/03 01:26:48;;;;;;;1.90;0.60;;;6.80;99.90;;;;;;2043692;28;20226;-70
2024/01/03 01:27:48;;;;;;;0.80;0.60;;;6.80;99.90;;;;;;2046520;28;20230;-71
2024/01/03 01:28:49;;;;;;;0.90;0.50;;;6.80;99.90;;;;;;2042823;28;20231;-70
2024/01/03 01:29:49;;;;;;;1.27;0.60;;;6.70;99.90;;;;;;2042883;28;20227;-70
2024/01/03 01:30:50;;;;;;;7.23;0.77;;;6.70;99.90;;;;;;2046843;28;20663;-71
2024/01/03 01:31:51;;;;;;;1.27;0.50;;;6.70;99.90;;;;;;2045384;28;20233;-71
2024/01/03 01:32:52;;;;;;;0.40;0.40;;;6.70;99.90;;;;;;2044843;28;20282;-70
2024/01/03 01:33:53;;;;;;;1.38;0.45;;;6.70;99.90;;;;;;2036039;29;20235;-71
2024/01/03 01:34:53;;;;;;;0.80;0.60;;;6.70;99.90;;;;;;2043594;28;20742;-71
2024/01/03 01:35:54;;;;;;;0.50;0.50;;;6.70;99.90;;;;;;2046343;28;20236;-70
2024/01/03 01:36:55;;;;;;;0.73;0.60;;;6.70;99.90;;;;;;2046323;28;20273;-71
2024/01/03 01:37:55;;;;;;;0.40;0.40;;;6.70;99.90;;;;;;2043020;28;20247;-70
2024/01/03 01:38:56;;;;;;;0.50;0.50;;;6.70;99.90;;;;;;2043781;28;20587;-72
2024/01/03 01:39:57;;;;;;;0.50;0.50;;;6.70;99.90;;;;;;2046290;28;20247;-71
2024/01/03 01:40:57;;;;;;;0.57;0.43;;;6.80;99.90;;;;;;2045120;28;20306;-71
2024/01/03 01:41:58;;;;;;;1.50;0.60;;;6.80;99.90;;;;;;2036691;29;20230;-70
2024/01/03 01:42:59;;;;;;;0.50;0.50;;;6.80;99.90;;;;;;2044245;28;20219;-71
2024/01/03 01:43:59;;;;;;;1.03;0.70;;;6.80;99.90;;;;;;2036629;29;20649;-72
2024/01/03 01:45:01;;;;;;;1.90;0.83;;;6.80;99.90;;;;;;2031001;29;20255;-70
2024/01/03 01:46:02;;;;;;;0.98;0.80;;;6.80;99.90;;;;;;2026393;29;20320;-70
2024/01/03 01:47:11;;;;;;;1.75;0.60;;;6.80;99.90;;;;;;2045310;28;20192;-70
2024/01/03 01:48:11;;;;;;;1.08;0.73;;;6.80;99.90;;;;;;2051624;28;20179;-71
2024/01/03 01:49:16;;;;;;;0.50;0.50;;;6.80;99.90;;;;;;2046075;28;20241;-71
2024/01/03 01:50:18;;;;;;;1.33;0.60;;;6.80;99.90;;;;;;2045689;28;20235;-71
2024/01/03 01:51:19;;;;;;;0.65;0.60;;;6.80;99.90;;;;;;2045237;28;20263;-71
2024/01/03 01:52:21;;;;;;;1.10;0.57;;;6.70;99.90;;;;;;2044248;28;20188;-71
2024/01/03 01:53:22;;;;;;;0.60;0.60;;;6.70;99.90;;;;;;2037805;28;20732;-71
2024/01/03 01:54:23;;;;;;;1.30;0.50;;;6.70;99.90;;;;;;2030540;29;20232;-70
2024/01/03 01:55:24;;;;;;;0.70;0.60;;;6.70;99.90;;;;;;2038887;29;21060;-71
2024/01/03 01:56:25;;;;;;;1.23;0.63;;;6.80;99.90;;;;;;2041948;28;20713;-71
2024/01/03 01:57:29;;;;;;;0.65;0.52;;;6.80;99.90;;;;;;2034703;29;20674;-71
2024/01/03 01:58:30;;;;;;;0.52;0.50;;;6.80;99.90;;;;;;2039179;28;20259;-71
2024/01/03 01:59:31;;;;;;;0.57;0.57;;;6.90;99.90;;;;;;2040640;28;20242;-71
2024/01/03 02:00:32;;;;;;;1.98;1.00;;;6.90;99.90;;;;;;2047963;28;20254;-72
2024/01/03 02:01:34;;;;;;;1.58;0.60;;;6.90;99.90;;;;;;2046381;28;20724;-72
2024/01/03 02:02:36;;;;;;;2.08;0.60;;;6.90;99.90;;;;;;2036070;29;20768;-72
2024/01/03 02:03:38;;;;;;;0.60;0.60;;;6.90;99.90;;;;;;2027553;29;20230;-72
2024/01/03 02:04:39;;;;;;;1.92;0.70;;;6.90;99.90;;;;;;2031661;29;20304;-71
2024/01/03 02:05:40;;;;;;;0.50;0.50;;;6.90;99.90;;;;;;2039376;28;20832;-71
2024/01/03 02:06:41;;;;;;;1.02;0.80;;;6.90;99.90;;;;;;2040536;28;20708;-71
2024/01/03 02:07:42;;;;;;;0.50;0.40;;;6.80;99.90;;;;;;2026307;29;20236;-71
2024/01/03 02:08:42;;;;;;;1.60;0.80;;;6.80;99.90;;;;;;2029968;29;20893;-73
2024/01/03 02:09:43;;;;;;;0.90;0.63;;;6.80;99.90;;;;;;2044762;28;20351;-71
2024/01/03 02:10:44;;;;;;;1.93;0.87;;;6.80;99.90;;;;;;2053447;28;20227;-71
2024/01/03 02:11:45;;;;;;;0.60;0.60;;;6.80;99.90;;;;;;2040082;28;20262;-71
2024/01/03 02:12:46;;;;;;;1.58;0.88;;;6.70;99.90;;;;;;2044094;28;20283;-71
2024/01/03 02:13:47;;;;;;;0.70;0.70;;;6.70;99.90;;;;;;2034924;29;20237;-72
2024/01/03 02:14:47;;;;;;;1.43;0.90;;;6.80;99.90;;;;;;2034928;29;20234;-71
2024/01/03 02:15:48;;;;;;;0.90;0.80;;;6.80;99.90;;;;;;2045243;28;20223;-72
2024/01/03 02:16:49;;;;;;;0.50;0.50;;;6.70;99.90;;;;;;2045416;28;20231;-71
2024/01/03 02:17:51;;;;;;;1.07;0.60;;;6.70;99.90;;;;;;2042301;28;20227;-71
2024/01/03 02:18:51;;;;;;;0.60;0.60;;;6.70;99.90;;;;;;2037042;29;20247;-71
2024/01/03 02:19:52;;;;;;;1.13;0.77;;;6.70;99.90;;;;;;2029517;29;20309;-71
2024/01/03 02:20:57;;;;;;;0.53;0.53;;;6.70;99.90;;;;;;2042283;28;20250;-71
2024/01/03 02:22:00;;;;;;;1.25;0.60;;;6.60;99.90;;;;;;2043616;28;20215;-71
2024/01/03 02:23:01;;;;;;;0.52;0.52;;;6.60;99.90;;;;;;2036145;28;20220;-71
2024/01/03 02:24:01;;;;;;;0.70;0.50;;;6.70;99.90;;;;;;2041870;28;20226;-71
2024/01/03 02:25:04;;;;;;;0.50;0.50;;;6.70;99.90;;;;;;2043030;28;20192;-71
2024/01/03 02:26:04;;;;;;;1.15;0.57;;;6.60;99.90;;;;;;2042654;28;20949;-72
2024/01/03 02:27:05;;;;;;;0.50;0.47;;;6.60;99.90;;;;;;2042469;28;20242;-73
2024/01/03 02:28:12;;;;;;;3.83;0.70;;;6.60;99.90;;;;;;2035813;28;20717;-73
2024/01/03 02:29:13;;;;;;;1.10;0.88;;;6.50;99.90;;;;;;2030351;29;20750;-72
2024/01/03 02:30:15;;;;;;;0.57;0.57;;;6.50;99.90;;;;;;2026179;29;20196;-71
2024/01/03 02:31:15;;;;;;;0.98;0.65;;;6.50;99.90;;;;;;2039883;28;20199;-71
2024/01/03 02:32:16;;;;;;;0.60;0.60;;;6.50;99.90;;;;;;2043619;28;20200;-71
2024/01/03 02:33:17;;;;;;;1.10;0.80;;;6.50;99.90;;;;;;2043878;28;20278;-71
2024/01/03 02:34:17;;;;;;;1.03;0.80;;;6.50;99.90;;;;;;2034937;28;20651;-72
2024/01/03 02:35:18;;;;;;;1.03;0.80;;;6.50;99.90;;;;;;2034346;28;20192;-73
2024/01/03 02:36:19;;;;;;;0.80;0.57;;;6.50;99.90;;;;;;2034490;29;20185;-72
2024/01/03 02:37:22;;;;;;;1.67;0.60;;;6.50;99.90;;;;;;2033294;29;20268;-72
2024/01/03 02:38:23;;;;;;;1.35;0.60;;;6.50;99.90;;;;;;2029625;29;20236;-72
2024/01/03 02:39:24;;;;;;;0.60;0.57;;;6.50;99.90;;;;;;2029002;29;20787;-72
2024/01/03 02:40:24;;;;;;;0.70;0.60;;;6.40;99.90;;;;;;2036902;29;20326;-71
2024/01/03 02:41:25;;;;;;;3.80;0.97;;;6.40;99.90;;;;;;2039169;28;20901;-72
2024/01/03 02:42:26;;;;;;;0.90;0.60;;;6.40;99.90;;;;;;2045791;28;20254;-72
2024/01/03 02:43:28;;;;;;;1.00;0.67;;;6.40;99.90;;;;;;2045473;28;20310;-72
2024/01/03 02:44:28;;;;;;;1.10;0.52;;;6.40;99.90;;;;;;2045357;28;20235;-71
2024/01/03 02:45:29;;;;;;;1.00;0.80;;;6.40;99.90;;;;;;2045202;28;20232;-71
2024/01/03 02:46:30;;;;;;;0.50;0.50;;;6.50;99.90;;;;;;2045133;28;20239;-71
2024/01/03 02:47:30;;;;;;;0.73;0.60;;;6.40;99.90;;;;;;2050026;28;20306;-71
2024/01/03 02:48:31;;;;;;;2.80;0.60;;;6.40;99.90;;;;;;2045197;28;20235;-71
2024/01/03 02:49:32;;;;;;;1.70;0.60;;;6.40;99.90;;;;;;2037335;29;20228;-71
2024/01/03 02:50:32;;;;;;;0.50;0.50;;;6.40;99.90;;;;;;2045610;28;20231;-71
2024/01/03 02:51:33;;;;;;;0.87;0.67;;;6.40;99.90;;;;;;2053077;28;20245;-71
2024/01/03 02:52:34;;;;;;;1.23;0.50;;;6.30;99.90;;;;;;2044569;28;20247;-71
2024/01/03 02:53:35;;;;;;;1.20;0.70;;;6.30;99.90;;;;;;2037406;29;20242;-71
2024/01/03 02:54:36;;;;;;;0.50;0.50;;;6.40;99.90;;;;;;2045695;28;20233;-71
2024/01/03 02:55:36;;;;;;;0.50;0.50;;;6.40;99.90;;;;;;2042539;28;20583;-71
2024/01/03 02:56:39;;;;;;;1.80;0.50;;;6.40;99.90;;;;;;2045191;28;20259;-71
2024/01/03 02:57:41;;;;;;;2.15;0.60;;;6.40;99.90;;;;;;2037476;29;20601;-71
2024/01/03 02:58:41;;;;;;;0.60;0.60;;;6.40;99.90;;;;;;2036797;29;20236;-71
2024/01/03 02:59:42;;;;;;;0.60;0.60;;;6.40;99.90;;;;;;2037277;28;21069;-71
2024/01/03 03:00:43;;;;;;;0.90;0.70;;;6.40;99.90;;;;;;2044114;28;20238;-71
2024/01/03 03:01:43;;;;;;;1.80;0.57;;;6.40;99.90;;;;;;2043107;28;21034;-71
2024/01/03 03:02:44;;;;;;;3.17;0.60;;;6.50;99.90;;;;;;2044157;28;20605;-71
2024/01/03 03:03:45;;;;;;;0.80;0.80;;;6.40;99.90;;;;;;2044094;28;20314;-70
2024/01/03 03:04:45;;;;;;;0.87;0.60;;;6.40;99.90;;;;;;2042568;28;20235;-70
2024/01/03 03:05:46;;;;;;;1.93;0.80;;;6.40;99.90;;;;;;2034956;29;20255;-71
2024/01/03 03:06:47;;;;;;;0.70;0.70;;;6.40;99.90;;;;;;2041700;28;20228;-70
2024/01/03 03:07:47;;;;;;;0.80;0.60;;;6.40;99.90;;;;;;2034439;29;20717;-71
2024/01/03 03:08:48;;;;;;;1.63;0.73;;;6.40;99.90;;;;;;2038908;29;20220;-71
2024/01/03 03:09:49;;;;;;;3.90;1.10;;;6.40;99.90;;;;;;2046180;28;20721;-71
2024/01/03 03:10:49;;;;;;;0.93;0.67;;;6.40;99.90;;;;;;2045438;28;20266;-71
2024/01/03 03:11:50;;;;;;;0.60;0.50;;;6.40;99.90;;;;;;2045143;28;20894;-71
2024/01/03 03:12:51;;;;;;;1.73;0.60;;;6.40;99.90;;;;;;2036616;29;20228;-71
2024/01/03 03:13:51;;;;;;;1.37;1.00;;;6.40;99.90;;;;;;2036119;29;20295;-71
2024/01/03 03:14:52;;;;;;;2.07;0.73;;;6.40;99.90;;;;;;2046566;28;20235;-70
2024/01/03 03:15:53;;;;;;;0.50;0.50;;;6.40;99.90;;;;;;2035564;29;20266;-71
2024/01/03 03:16:54;;;;;;;1.90;0.60;;;6.40;99.90;;;;;;2034598;29;20720;-71
2024/01/03 03:17:54;;;;;;;0.83;0.50;;;6.50;99.90;;;;;;2043074;28;20238;-71
2024/01/03 03:18:55;;;;;;;0.60;0.57;;;6.50;99.90;;;;;;2046181;28;20290;-71
2024/01/03 03:19:56;;;;;;;1.10;0.90;;;6.60;99.90;;;;;;2046269;28;20710;-70
2024/01/03 03:20:57;;;;;;;0.47;0.47;;;6.70;99.90;;;;;;2037510;29;20299;-71
2024/01/03 03:21:59;;;;;;;0.60;0.50;;;6.70;99.90;;;;;;2045859;28;20764;-71
2024/01/03 03:23:00;;;;;;;1.75;0.75;;;6.60;99.90;;;;;;2036010;29;20598;-71
2024/01/03 03:24:01;;;;;;;0.60;0.50;;;6.70;99.90;;;;;;2021309;29;20229;-71
2024/01/03 03:25:02;;;;;;;1.90;0.60;;;6.70;99.90;;;;;;2027468;29;20205;-71
2024/01/03 03:26:03;;;;;;;2.27;0.80;;;6.70;99.90;;;;;;2027688;29;20585;-71
2024/01/03 03:27:04;;;;;;;1.05;0.80;;;6.70;99.90;;;;;;2035013;29;20195;-71
2024/01/03 03:28:07;;;;;;;1.30;0.70;;;6.70;99.90;;;;;;2036269;28;20697;-71
2024/01/03 03:29:08;;;;;;;5.22;0.82;;;6.70;99.90;;;;;;2030682;29;20466;-71
2024/01/03 03:30:09;;;;;;;0.60;0.60;;;6.70;99.90;;;;;;2041867;28;20219;-71
2024/01/03 03:31:10;;;;;;;0.60;0.60;;;6.70;99.90;;;;;;2047747;28;20192;-71
2024/01/03 03:32:11;;;;;;;0.53;0.40;;;6.70;99.90;;;;;;2044472;28;20627;-71
2024/01/03 03:33:12;;;;;;;0.67;0.53;;;6.70;99.90;;;;;;2035640;28;20661;-71
2024/01/03 03:34:15;;;;;;;2.53;0.80;;;6.80;99.90;;;;;;2036293;28;20220;-71
2024/01/03 03:35:16;;;;;;;0.70;0.68;;;6.80;99.90;;;;;;2043186;28;20211;-71
2024/01/03 03:36:17;;;;;;;2.70;0.80;;;6.80;99.90;;;;;;2035115;29;20675;-71
2024/01/03 03:37:19;;;;;;;0.63;0.63;;;6.80;99.90;;;;;;2042567;28;20212;-71
2024/01/03 03:38:19;;;;;;;0.60;0.60;;;6.90;99.90;;;;;;2046555;28;20212;-71
2024/01/03 03:39:20;;;;;;;0.53;0.53;;;6.80;99.90;;;;;;2046152;28;20531;-71
2024/01/03 03:40:23;;;;;;;0.80;0.60;;;6.80;99.90;;;;;;2045600;28;20373;-71
2024/01/03 03:41:23;;;;;;;1.00;0.50;;;6.90;99.90;;;;;;2045094;28;20270;-71
2024/01/03 03:42:24;;;;;;;1.43;0.70;;;6.80;99.90;;;;;;2036684;28;20224;-71
2024/01/03 03:43:25;;;;;;;0.53;0.50;;;6.80;99.90;;;;;;2036461;28;20228;-71
2024/01/03 03:44:26;;;;;;;1.60;0.60;;;6.70;99.90;;;;;;2028277;29;20296;-71
2024/01/03 03:45:26;;;;;;;0.45;0.45;;;6.70;99.90;;;;;;2026859;29;20738;-71
2024/01/03 03:46:27;;;;;;;1.30;0.50;;;6.80;99.90;;;;;;2038363;29;20251;-71
2024/01/03 03:47:28;;;;;;;1.53;0.60;;;6.80;99.90;;;;;;2038720;29;20236;-71
2024/01/03 03:48:29;;;;;;;2.50;0.70;;;6.90;99.90;;;;;;2046782;28;20238;-71
2024/01/03 03:49:29;;;;;;;0.70;0.63;;;6.90;99.90;;;;;;2053190;28;20242;-71
2024/01/03 03:50:30;;;;;;;0.80;0.70;;;6.90;99.90;;;;;;2046335;28;20307;-71
2024/01/03 03:51:31;;;;;;;0.70;0.60;;;7.00;99.90;;;;;;2046547;28;20294;-71
2024/01/03 03:52:31;;;;;;;1.00;0.70;;;7.00;99.90;;;;;;2036830;29;20233;-71
2024/01/03 03:53:32;;;;;;;2.23;1.03;;;7.00;99.90;;;;;;2036450;29;20225;-71
2024/01/03 03:54:33;;;;;;;1.37;0.60;;;7.00;99.90;;;;;;2051395;28;20263;-72
2024/01/03 03:55:33;;;;;;;0.70;0.70;;;7.00;99.90;;;;;;2031865;28;20261;-71
2024/01/03 03:56:34;;;;;;;0.67;0.67;;;7.00;99.90;;;;;;2030095;29;20248;-71
2024/01/03 03:57:35;;;;;;;1.83;0.80;;;7.00;99.90;;;;;;2030224;29;20228;-71
2024/01/03 03:58:36;;;;;;;1.20;0.50;;;7.00;99.90;;;;;;2030093;29;20236;-71
2024/01/03 03:59:37;;;;;;;0.60;0.60;;;7.00;99.90;;;;;;2045278;28;20223;-71
2024/01/03 04:00:37;;;;;;;1.77;0.60;;;7.00;99.90;;;;;;2044642;28;20725;-71
2024/01/03 04:01:38;;;;;;;0.50;0.50;;;7.00;99.90;;;;;;2037451;29;20232;-71
2024/01/03 04:02:39;;;;;;;0.60;0.60;;;7.10;99.90;;;;;;2038531;29;20720;-71
2024/01/03 04:03:39;;;;;;;0.40;0.40;;;7.10;99.90;;;;;;2044393;28;20232;-71
2024/01/03 04:04:40;;;;;;;1.80;0.60;;;7.10;99.90;;;;;;2044923;28;20223;-71
2024/01/03 04:05:41;;;;;;;1.73;0.73;;;7.20;99.90;;;;;;2042511;28;20685;-71
2024/01/03 04:06:42;;;;;;;0.77;0.57;;;7.20;99.90;;;;;;2035583;29;20243;-71
2024/01/03 04:07:43;;;;;;;1.00;0.63;;;7.20;99.90;;;;;;2043063;28;20246;-71
2024/01/03 04:08:45;;;;;;;0.80;0.50;;;7.30;99.90;;;;;;2045476;28;20228;-71
2024/01/03 04:09:46;;;;;;;0.40;0.40;;;7.30;99.90;;;;;;2038221;29;20221;-71
2024/01/03 04:10:46;;;;;;;0.80;0.57;;;7.20;99.90;;;;;;2038632;29;20238;-71
2024/01/03 04:11:47;;;;;;;1.53;0.60;;;7.20;99.90;;;;;;2046465;28;20696;-71
2024/01/03 04:12:48;;;;;;;0.73;0.40;;;7.20;99.90;;;;;;2030444;29;20229;-71
2024/01/03 04:13:48;;;;;;;1.73;0.83;;;7.20;99.90;;;;;;2038097;29;20228;-71
2024/01/03 04:14:49;;;;;;;1.37;0.53;;;7.20;99.90;;;;;;2051172;28;20297;-71
2024/01/03 04:15:50;;;;;;;0.33;0.33;;;7.10;99.90;;;;;;2043019;28;20223;-71
2024/01/03 04:16:50;;;;;;;1.57;0.60;;;7.10;99.90;;;;;;2035112;29;20247;-70
2024/01/03 04:17:51;;;;;;;0.40;0.40;;;7.00;99.90;;;;;;2034725;29;20311;-71
2024/01/03 04:18:52;;;;;;;1.23;0.40;;;6.90;99.90;;;;;;2038780;28;20334;-71
2024/01/03 04:19:53;;;;;;;0.47;0.40;;;6.80;99.90;;;;;;2036854;29;20312;-71
2024/01/03 04:20:53;;;;;;;0.40;0.40;;;6.80;99.90;;;;;;2044671;28;20808;-71
2024/01/03 04:21:54;;;;;;;2.47;0.63;;;6.80;99.90;;;;;;2044976;28;20214;-70
2024/01/03 04:22:55;;;;;;;0.40;0.40;;;6.70;99.90;;;;;;2046675;28;20264;-70
2024/01/03 04:23:56;;;;;;;1.83;0.50;;;6.70;99.90;;;;;;2046124;28;20700;-70
2024/01/03 04:24:56;;;;;;;6.50;0.60;;;6.70;99.90;;;;;;2044506;28;20231;-70
2024/01/03 04:25:57;;;;;;;0.70;0.50;;;6.70;99.90;;;;;;2043854;28;20482;-70
2024/01/03 04:26:58;;;;;;;2.40;0.60;;;6.70;99.90;;;;;;2042107;28;20239;-70
2024/01/03 04:27:59;;;;;;;0.73;0.53;;;6.70;99.90;;;;;;2043031;28;20283;-71
2024/01/03 04:29:00;;;;;;;0.43;0.30;;;6.70;99.90;;;;;;2046327;28;20724;-71
2024/01/03 04:30:00;;;;;;;1.75;0.70;;;6.70;99.90;;;;;;2037400;29;20287;-71
2024/01/03 04:31:01;;;;;;;0.60;0.40;;;6.70;99.90;;;;;;2036365;29;20279;-70
2024/01/03 04:32:02;;;;;;;0.30;0.30;;;6.70;99.90;;;;;;2044754;28;20579;-71
2024/01/03 04:33:03;;;;;;;0.63;0.37;;;6.80;99.90;;;;;;2043732;28;20604;-71
2024/01/03 04:34:04;;;;;;;0.30;0.30;;;6.80;99.90;;;;;;2043604;28;20234;-71
2024/01/03 04:35:05;;;;;;;0.70;0.40;;;6.80;99.90;;;;;;2038277;29;20588;-72
2024/01/03 04:36:06;;;;;;;0.40;0.40;;;6.80;99.90;;;;;;2030202;29;20241;-72
2024/01/03 04:37:07;;;;;;;0.50;0.50;;;6.80;99.90;;;;;;2028356;29;20212;-72
2024/01/03 04:38:08;;;;;;;0.40;0.40;;;6.70;99.90;;;;;;2035604;28;20223;-72
2024/01/03 04:39:08;;;;;;;0.30;0.30;;;6.70;99.90;;;;;;2037350;28;20678;-72
2024/01/03 04:40:10;;;;;;;0.67;0.40;;;6.80;99.90;;;;;;2045168;28;20180;-71
2024/01/03 04:41:11;;;;;;;3.22;0.57;;;6.70;99.90;;;;;;2036518;29;20645;-71
2024/01/03 04:42:12;;;;;;;1.67;0.63;;;6.70;99.90;;;;;;2036901;29;20184;-72
2024/01/03 04:43:12;;;;;;;0.30;0.30;;;6.70;99.90;;;;;;2044293;28;20265;-72
2024/01/03 04:44:13;;;;;;;0.40;0.40;;;6.70;99.90;;;;;;2036015;28;20793;-72
2024/01/03 04:45:14;;;;;;;0.50;0.40;;;6.70;99.90;;;;;;2035251;28;20216;-72
2024/01/03 04:46:14;;;;;;;1.30;0.33;;;6.70;99.90;;;;;;2035300;29;20188;-72
2024/01/03 04:47:15;;;;;;;0.67;0.40;;;6.70;99.90;;;;;;2037344;28;20587;-72
2024/01/03 04:48:16;;;;;;;0.57;0.50;;;6.70;99.90;;;;;;2038117;28;20193;-72
2024/01/03 04:49:17;;;;;;;1.20;0.73;;;6.70;99.90;;;;;;2045289;28;20192;-72
2024/01/03 04:50:17;;;;;;;0.90;0.40;;;6.80;99.90;;;;;;2044641;28;20219;-72
2024/01/03 04:51:18;;;;;;;0.60;0.50;;;6.80;99.90;;;;;;2044584;28;20191;-72
2024/01/03 04:52:19;;;;;;;0.50;0.50;;;6.80;99.90;;;;;;2044047;28;20184;-72
2024/01/03 04:53:19;;;;;;;0.67;0.60;;;6.80;99.90;;;;;;2042837;28;20188;-72
2024/01/03 04:54:20;;;;;;;0.50;0.47;;;6.70;99.90;;;;;;2043938;28;20270;-72
2024/01/03 04:55:20;;;;;;;0.80;0.50;;;6.70;99.90;;;;;;2043121;28;20800;-72
2024/01/03 04:56:24;;;;;;;1.50;0.67;;;6.70;99.90;;;;;;2043048;28;20296;-72
2024/01/03 04:57:25;;;;;;;0.63;0.60;;;6.70;99.90;;;;;;2046046;28;20255;-72
2024/01/03 04:58:26;;;;;;;1.23;0.83;;;6.70;99.90;;;;;;2037550;29;20231;-71
2024/01/03 04:59:27;;;;;;;2.77;0.60;;;6.60;99.90;;;;;;2044730;28;20795;-72
2024/01/03 05:00:27;;;;;;;1.03;0.67;;;6.60;99.90;;;;;;2043499;28;20235;-71
2024/01/03 05:01:28;;;;;;;0.93;0.47;;;6.60;99.90;;;;;;2044569;28;20231;-72
2024/01/03 05:02:29;;;;;;;5.27;0.57;;;6.60;99.90;;;;;;2043325;28;20271;-72
2024/01/03 05:03:29;;;;;;;1.50;0.70;;;6.60;99.90;;;;;;2044069;28;20239;-72
2024/01/03 05:04:30;;;;;;;2.00;0.80;;;6.70;99.90;;;;;;2043484;28;20295;-72
2024/01/03 05:05:31;;;;;;;0.90;0.60;;;6.60;99.90;;;;;;2043552;28;20568;-72
2024/01/03 05:06:32;;;;;;;0.50;0.50;;;6.70;99.90;;;;;;2042686;28;20297;-72
2024/01/03 05:07:34;;;;;;;0.50;0.50;;;6.60;99.90;;;;;;2038588;29;20277;-72
2024/01/03 05:08:34;;;;;;;1.33;0.60;;;6.70;99.90;;;;;;2029203;29;20235;-72
2024/01/03 05:09:35;;;;;;;1.80;0.63;;;6.70;99.90;;;;;;2032901;29;20373;-72
2024/01/03 05:10:36;;;;;;;2.57;0.60;;;6.70;99.90;;;;;;2044455;28;20263;-72
2024/01/03 05:11:36;;;;;;;1.17;0.60;;;6.70;99.90;;;;;;2046337;28;20298;-72
2024/01/03 05:12:37;;;;;;;1.50;0.50;;;6.70;99.90;;;;;;2044006;28;20232;-73
2024/01/03 05:13:38;;;;;;;1.17;0.50;;;6.70;99.90;;;;;;2043978;28;20244;-71
2024/01/03 05:14:38;;;;;;;2.80;0.97;;;6.70;99.90;;;;;;2042755;28;20606;-71
2024/01/03 05:15:39;;;;;;;0.90;0.70;;;6.70;99.90;;;;;;2037776;29;20228;-72
2024/01/03 05:16:41;;;;;;;1.33;1.00;;;6.70;99.90;;;;;;2034215;29;20316;-72
2024/01/03 05:17:41;;;;;;;2.55;1.52;;;6.70;99.90;;;;;;2045450;28;20239;-72
2024/01/03 05:18:42;;;;;;;0.87;0.63;;;6.70;99.90;;;;;;2044992;28;20310;-72
2024/01/03 05:19:43;;;;;;;0.93;0.53;;;6.70;99.90;;;;;;2044601;28;20246;-72
2024/01/03 05:20:44;;;;;;;1.87;0.83;;;6.70;99.90;;;;;;2046797;28;20720;-72
2024/01/03 05:21:44;;;;;;;1.40;1.00;;;6.70;99.90;;;;;;2041982;28;20235;-72
2024/01/03 05:22:45;;;;;;;1.90;0.67;;;6.70;99.90;;;;;;2044549;28;20323;-72
2024/01/03 05:23:46;;;;;;;1.10;0.93;;;6.70;99.90;;;;;;2043937;28;20287;-72
2024/01/03 05:24:46;;;;;;;4.53;1.10;;;6.80;99.90;;;;;;2034864;29;20232;-72